sensor_id;sensor_type;location;lat;lon;timestamp;P1;durP1;ratioP1;P2;durP2;ratioP2
28519;SDS011;15732;48.534;20.382;2023-03-29T00:00:25;6.80;;;3.05;;
28519;SDS011;15732;48.534;20.382;2023-03-29T00:02:52;10.63;;;4.40;;
28519;SDS011;15732;48.534;20.382;2023-03-29T00:07:50;3.55;;;1.38;;
28519;SDS011;15732;48.534;20.382;2023-03-29T00:12:51;2.40;;;1.20;;
28519;SDS011;15732;48.534;20.382;2023-03-29T00:15:18;2.03;;;1.10;;
28519;SDS011;15732;48.534;20.382;2023-03-29T00:17:46;4.07;;;1.42;;
28519;SDS011;15732;48.534;20.382;2023-03-29T00:20:14;2.08;;;1.02;;
28519;SDS011;15732;48.534;20.382;2023-03-29T00:22:41;2.08;;;1.15;;
28519;SDS011;15732;48.534;20.382;2023-03-29T00:25:14;4.10;;;1.83;;
28519;SDS011;15732;48.534;20.382;2023-03-29T00:27:41;3.80;;;0.90;;
28519;SDS011;15732;48.534;20.382;2023-03-29T00:30:09;2.47;;;1.27;;
28519;SDS011;15732;48.534;20.382;2023-03-29T00:32:39;1.52;;;1.02;;
28519;SDS011;15732;48.534;20.382;2023-03-29T00:35:06;2.67;;;1.23;;
28519;SDS011;15732;48.534;20.382;2023-03-29T00:37:34;12.40;;;2.80;;
28519;SDS011;15732;48.534;20.382;2023-03-29T00:40:06;8.25;;;2.38;;
28519;SDS011;15732;48.534;20.382;2023-03-29T00:42:36;11.10;;;3.33;;
28519;SDS011;15732;48.534;20.382;2023-03-29T00:45:15;18.17;;;5.75;;
28519;SDS011;15732;48.534;20.382;2023-03-29T00:47:52;9.80;;;4.53;;
28519;SDS011;15732;48.534;20.382;2023-03-29T00:55:50;8.85;;;2.47;;
28519;SDS011;15732;48.534;20.382;2023-03-29T00:58:29;10.23;;;3.63;;
28519;SDS011;15732;48.534;20.382;2023-03-29T01:01:06;12.27;;;3.10;;
28519;SDS011;15732;48.534;20.382;2023-03-29T01:03:44;9.48;;;3.63;;
28519;SDS011;15732;48.534;20.382;2023-03-29T01:06:15;5.78;;;1.73;;
28519;SDS011;15732;48.534;20.382;2023-03-29T01:08:46;8.13;;;2.72;;
28519;SDS011;15732;48.534;20.382;2023-03-29T01:11:23;3.88;;;1.33;;
28519;SDS011;15732;48.534;20.382;2023-03-29T01:14:05;7.20;;;1.92;;
28519;SDS011;15732;48.534;20.382;2023-03-29T01:16:54;4.93;;;2.00;;
28519;SDS011;15732;48.534;20.382;2023-03-29T01:19:24;4.60;;;2.00;;
28519;SDS011;15732;48.534;20.382;2023-03-29T01:21:59;14.95;;;2.17;;
28519;SDS011;15732;48.534;20.382;2023-03-29T01:24:42;7.18;;;2.65;;
28519;SDS011;15732;48.534;20.382;2023-03-29T01:27:16;16.27;;;2.72;;
28519;SDS011;15732;48.534;20.382;2023-03-29T01:30:04;6.90;;;3.03;;
28519;SDS011;15732;48.534;20.382;2023-03-29T01:32:59;11.55;;;4.22;;
28519;SDS011;15732;48.534;20.382;2023-03-29T01:38:14;5.40;;;2.22;;
28519;SDS011;15732;48.534;20.382;2023-03-29T01:40:48;8.15;;;2.00;;
28519;SDS011;15732;48.534;20.382;2023-03-29T01:51:22;4.93;;;1.73;;
28519;SDS011;15732;48.534;20.382;2023-03-29T01:53:58;2.70;;;1.30;;
28519;SDS011;15732;48.534;20.382;2023-03-29T01:56:39;2.38;;;1.48;;
28519;SDS011;15732;48.534;20.382;2023-03-29T01:59:16;3.28;;;1.80;;
28519;SDS011;15732;48.534;20.382;2023-03-29T02:01:48;5.70;;;1.63;;
28519;SDS011;15732;48.534;20.382;2023-03-29T02:04:19;5.55;;;2.13;;
28519;SDS011;15732;48.534;20.382;2023-03-29T02:06:52;9.80;;;3.00;;
28519;SDS011;15732;48.534;20.382;2023-03-29T02:09:22;3.22;;;1.85;;
28519;SDS011;15732;48.534;20.382;2023-03-29T02:11:49;7.55;;;1.48;;
28519;SDS011;15732;48.534;20.382;2023-03-29T02:14:18;3.83;;;1.88;;
28519;SDS011;15732;48.534;20.382;2023-03-29T02:16:46;2.90;;;1.48;;
28519;SDS011;15732;48.534;20.382;2023-03-29T02:19:14;5.55;;;2.00;;
28519;SDS011;15732;48.534;20.382;2023-03-29T02:21:46;2.13;;;1.17;;
28519;SDS011;15732;48.534;20.382;2023-03-29T02:24:26;2.28;;;1.08;;
28519;SDS011;15732;48.534;20.382;2023-03-29T02:26:57;4.72;;;1.83;;
28519;SDS011;15732;48.534;20.382;2023-03-29T02:29:26;3.83;;;1.13;;
28519;SDS011;15732;48.534;20.382;2023-03-29T02:34:47;6.03;;;2.20;;
28519;SDS011;15732;48.534;20.382;2023-03-29T02:37:23;4.93;;;2.28;;
28519;SDS011;15732;48.534;20.382;2023-03-29T02:39:58;4.70;;;2.25;;
28519;SDS011;15732;48.534;20.382;2023-03-29T02:42:26;3.45;;;1.90;;
28519;SDS011;15732;48.534;20.382;2023-03-29T02:44:56;5.45;;;1.90;;
28519;SDS011;15732;48.534;20.382;2023-03-29T02:47:27;4.20;;;1.88;;
28519;SDS011;15732;48.534;20.382;2023-03-29T02:50:00;7.63;;;2.85;;
28519;SDS011;15732;48.534;20.382;2023-03-29T02:52:30;4.50;;;1.70;;
28519;SDS011;15732;48.534;20.382;2023-03-29T02:55:01;2.92;;;1.35;;
28519;SDS011;15732;48.534;20.382;2023-03-29T02:57:31;6.35;;;1.83;;
28519;SDS011;15732;48.534;20.382;2023-03-29T03:00:00;6.80;;;2.60;;
28519;SDS011;15732;48.534;20.382;2023-03-29T03:02:31;3.90;;;1.30;;
28519;SDS011;15732;48.534;20.382;2023-03-29T03:05:00;3.30;;;1.65;;
28519;SDS011;15732;48.534;20.382;2023-03-29T03:07:27;21.27;;;2.05;;
28519;SDS011;15732;48.534;20.382;2023-03-29T03:09:55;10.60;;;2.70;;
28519;SDS011;15732;48.534;20.382;2023-03-29T03:12:22;10.82;;;2.65;;
28519;SDS011;15732;48.534;20.382;2023-03-29T03:14:54;5.82;;;1.75;;
28519;SDS011;15732;48.534;20.382;2023-03-29T03:17:21;7.03;;;2.55;;
28519;SDS011;15732;48.534;20.382;2023-03-29T03:19:49;13.53;;;3.63;;
28519;SDS011;15732;48.534;20.382;2023-03-29T03:22:20;13.75;;;2.72;;
28519;SDS011;15732;48.534;20.382;2023-03-29T03:24:52;17.17;;;3.83;;
28519;SDS011;15732;48.534;20.382;2023-03-29T03:27:20;6.93;;;3.40;;
28519;SDS011;15732;48.534;20.382;2023-03-29T03:29:47;14.18;;;4.43;;
28519;SDS011;15732;48.534;20.382;2023-03-29T03:32:18;17.83;;;5.45;;
28519;SDS011;15732;48.534;20.382;2023-03-29T03:34:46;6.05;;;2.58;;
28519;SDS011;15732;48.534;20.382;2023-03-29T03:37:14;7.28;;;2.85;;
28519;SDS011;15732;48.534;20.382;2023-03-29T03:39:41;16.40;;;3.78;;
28519;SDS011;15732;48.534;20.382;2023-03-29T03:42:09;15.32;;;3.47;;
28519;SDS011;15732;48.534;20.382;2023-03-29T03:44:40;9.50;;;2.13;;
28519;SDS011;15732;48.534;20.382;2023-03-29T03:47:12;9.60;;;2.75;;
28519;SDS011;15732;48.534;20.382;2023-03-29T03:49:39;9.20;;;4.85;;
28519;SDS011;15732;48.534;20.382;2023-03-29T03:52:11;17.25;;;4.93;;
28519;SDS011;15732;48.534;20.382;2023-03-29T03:54:39;7.43;;;3.50;;
28519;SDS011;15732;48.534;20.382;2023-03-29T03:57:06;5.57;;;2.67;;
28519;SDS011;15732;48.534;20.382;2023-03-29T03:59:34;8.30;;;2.78;;
28519;SDS011;15732;48.534;20.382;2023-03-29T04:02:01;6.82;;;2.70;;
28519;SDS011;15732;48.534;20.382;2023-03-29T04:04:28;12.07;;;3.47;;
28519;SDS011;15732;48.534;20.382;2023-03-29T04:06:56;7.50;;;2.97;;
28519;SDS011;15732;48.534;20.382;2023-03-29T04:09:28;21.70;;;5.05;;
28519;SDS011;15732;48.534;20.382;2023-03-29T04:11:56;12.38;;;4.53;;
28519;SDS011;15732;48.534;20.382;2023-03-29T04:14:23;12.27;;;4.35;;
28519;SDS011;15732;48.534;20.382;2023-03-29T04:16:51;7.50;;;4.22;;
28519;SDS011;15732;48.534;20.382;2023-03-29T04:19:19;5.50;;;2.83;;
28519;SDS011;15732;48.534;20.382;2023-03-29T04:21:46;8.65;;;3.38;;
28519;SDS011;15732;48.534;20.382;2023-03-29T04:24:14;7.73;;;3.33;;
28519;SDS011;15732;48.534;20.382;2023-03-29T04:26:42;10.95;;;3.70;;
28519;SDS011;15732;48.534;20.382;2023-03-29T04:29:09;5.20;;;2.27;;
28519;SDS011;15732;48.534;20.382;2023-03-29T04:31:37;12.00;;;3.40;;
28519;SDS011;15732;48.534;20.382;2023-03-29T04:34:04;19.67;;;5.72;;
28519;SDS011;15732;48.534;20.382;2023-03-29T04:36:32;31.75;;;8.63;;
28519;SDS011;15732;48.534;20.382;2023-03-29T04:38:59;29.45;;;6.93;;
28519;SDS011;15732;48.534;20.382;2023-03-29T04:41:26;13.95;;;5.07;;
28519;SDS011;15732;48.534;20.382;2023-03-29T04:43:54;11.88;;;6.32;;
28519;SDS011;15732;48.534;20.382;2023-03-29T04:46:21;14.18;;;4.50;;
28519;SDS011;15732;48.534;20.382;2023-03-29T04:48:51;16.25;;;5.07;;
28519;SDS011;15732;48.534;20.382;2023-03-29T04:51:18;15.18;;;4.93;;
28519;SDS011;15732;48.534;20.382;2023-03-29T04:53:47;8.80;;;2.65;;
28519;SDS011;15732;48.534;20.382;2023-03-29T04:56:18;9.55;;;3.53;;
28519;SDS011;15732;48.534;20.382;2023-03-29T04:58:47;14.15;;;4.35;;
28519;SDS011;15732;48.534;20.382;2023-03-29T05:01:15;8.43;;;3.63;;
28519;SDS011;15732;48.534;20.382;2023-03-29T05:03:43;4.78;;;2.38;;
28519;SDS011;15732;48.534;20.382;2023-03-29T05:06:10;8.68;;;2.13;;
28519;SDS011;15732;48.534;20.382;2023-03-29T05:08:38;4.95;;;1.75;;
28519;SDS011;15732;48.534;20.382;2023-03-29T05:11:06;3.30;;;1.65;;
28519;SDS011;15732;48.534;20.382;2023-03-29T05:13:35;4.93;;;1.58;;
28519;SDS011;15732;48.534;20.382;2023-03-29T05:16:02;8.70;;;2.28;;
28519;SDS011;15732;48.534;20.382;2023-03-29T05:18:30;3.38;;;1.70;;
28519;SDS011;15732;48.534;20.382;2023-03-29T05:20:57;1.58;;;1.00;;
28519;SDS011;15732;48.534;20.382;2023-03-29T05:23:24;7.30;;;1.42;;
28519;SDS011;15732;48.534;20.382;2023-03-29T05:25:56;4.82;;;1.67;;
28519;SDS011;15732;48.534;20.382;2023-03-29T05:28:27;1.88;;;1.10;;
28519;SDS011;15732;48.534;20.382;2023-03-29T05:31:02;2.90;;;1.40;;
28519;SDS011;15732;48.534;20.382;2023-03-29T05:33:30;3.15;;;1.35;;
28519;SDS011;15732;48.534;20.382;2023-03-29T05:36:02;4.35;;;1.42;;
28519;SDS011;15732;48.534;20.382;2023-03-29T05:38:30;1.83;;;0.85;;
28519;SDS011;15732;48.534;20.382;2023-03-29T05:40:58;5.55;;;1.15;;
28519;SDS011;15732;48.534;20.382;2023-03-29T05:43:26;2.72;;;1.30;;
28519;SDS011;15732;48.534;20.382;2023-03-29T05:45:57;1.90;;;1.17;;
28519;SDS011;15732;48.534;20.382;2023-03-29T05:48:24;2.92;;;1.45;;
28519;SDS011;15732;48.534;20.382;2023-03-29T05:50:52;3.83;;;1.30;;
28519;SDS011;15732;48.534;20.382;2023-03-29T05:53:21;2.58;;;1.25;;
28519;SDS011;15732;48.534;20.382;2023-03-29T05:55:49;3.75;;;1.75;;
28519;SDS011;15732;48.534;20.382;2023-03-29T05:58:16;17.15;;;1.77;;
28519;SDS011;15732;48.534;20.382;2023-03-29T06:03:15;5.15;;;1.95;;
28519;SDS011;15732;48.534;20.382;2023-03-29T06:05:44;6.43;;;1.73;;
28519;SDS011;15732;48.534;20.382;2023-03-29T06:08:14;2.33;;;1.13;;
28519;SDS011;15732;48.534;20.382;2023-03-29T06:10:42;2.70;;;1.50;;
28519;SDS011;15732;48.534;20.382;2023-03-29T06:13:10;3.25;;;1.80;;
28519;SDS011;15732;48.534;20.382;2023-03-29T06:15:37;5.72;;;1.73;;
28519;SDS011;15732;48.534;20.382;2023-03-29T06:18:05;2.03;;;1.13;;
28519;SDS011;15732;48.534;20.382;2023-03-29T06:20:32;5.88;;;1.52;;
28519;SDS011;15732;48.534;20.382;2023-03-29T06:22:59;2.03;;;1.25;;
28519;SDS011;15732;48.534;20.382;2023-03-29T06:25:26;3.30;;;1.38;;
28519;SDS011;15732;48.534;20.382;2023-03-29T06:27:57;2.03;;;0.90;;
28519;SDS011;15732;48.534;20.382;2023-03-29T06:30:25;3.25;;;1.95;;
28519;SDS011;15732;48.534;20.382;2023-03-29T06:32:57;3.63;;;1.35;;
28519;SDS011;15732;48.534;20.382;2023-03-29T06:35:25;1.65;;;1.15;;
28519;SDS011;15732;48.534;20.382;2023-03-29T06:37:52;3.70;;;0.98;;
28519;SDS011;15732;48.534;20.382;2023-03-29T06:40:24;3.75;;;2.05;;
28519;SDS011;15732;48.534;20.382;2023-03-29T06:42:55;2.08;;;1.33;;
28519;SDS011;15732;48.534;20.382;2023-03-29T06:45:26;5.95;;;1.55;;
28519;SDS011;15732;48.534;20.382;2023-03-29T06:47:56;7.82;;;1.40;;
28519;SDS011;15732;48.534;20.382;2023-03-29T06:50:23;5.45;;;1.48;;
28519;SDS011;15732;48.534;20.382;2023-03-29T06:52:51;3.03;;;1.20;;
28519;SDS011;15732;48.534;20.382;2023-03-29T06:55:18;30.17;;;3.08;;
28519;SDS011;15732;48.534;20.382;2023-03-29T06:57:47;3.53;;;1.48;;
28519;SDS011;15732;48.534;20.382;2023-03-29T07:00:15;3.53;;;1.38;;
28519;SDS011;15732;48.534;20.382;2023-03-29T07:02:44;2.67;;;1.20;;
28519;SDS011;15732;48.534;20.382;2023-03-29T07:05:12;2.75;;;1.00;;
28519;SDS011;15732;48.534;20.382;2023-03-29T07:07:44;2.50;;;0.90;;
28519;SDS011;15732;48.534;20.382;2023-03-29T07:10:37;4.13;;;1.70;;
28519;SDS011;15732;48.534;20.382;2023-03-29T07:13:07;6.00;;;1.60;;
28519;SDS011;15732;48.534;20.382;2023-03-29T07:15:37;3.72;;;1.10;;
28519;SDS011;15732;48.534;20.382;2023-03-29T07:18:04;6.38;;;1.10;;
28519;SDS011;15732;48.534;20.382;2023-03-29T07:20:31;2.35;;;1.25;;
28519;SDS011;15732;48.534;20.382;2023-03-29T07:22:58;7.85;;;1.48;;
28519;SDS011;15732;48.534;20.382;2023-03-29T07:25:26;2.40;;;0.93;;
28519;SDS011;15732;48.534;20.382;2023-03-29T07:27:55;2.97;;;1.25;;
28519;SDS011;15732;48.534;20.382;2023-03-29T07:30:23;1.55;;;0.77;;
28519;SDS011;15732;48.534;20.382;2023-03-29T07:32:53;2.33;;;1.25;;
28519;SDS011;15732;48.534;20.382;2023-03-29T07:35:22;3.40;;;1.02;;
28519;SDS011;15732;48.534;20.382;2023-03-29T07:37:50;1.55;;;0.90;;
28519;SDS011;15732;48.534;20.382;2023-03-29T07:40:17;3.60;;;0.85;;
28519;SDS011;15732;48.534;20.382;2023-03-29T07:42:51;2.50;;;1.13;;
28519;SDS011;15732;48.534;20.382;2023-03-29T07:45:20;1.63;;;0.82;;
28519;SDS011;15732;48.534;20.382;2023-03-29T07:47:49;11.25;;;1.48;;
28519;SDS011;15732;48.534;20.382;2023-03-29T07:50:24;3.33;;;1.20;;
28519;SDS011;15732;48.534;20.382;2023-03-29T07:52:56;2.40;;;1.15;;
28519;SDS011;15732;48.534;20.382;2023-03-29T07:55:28;2.65;;;1.20;;
28519;SDS011;15732;48.534;20.382;2023-03-29T07:57:55;3.30;;;1.65;;
28519;SDS011;15732;48.534;20.382;2023-03-29T08:00:22;2.50;;;1.40;;
28519;SDS011;15732;48.534;20.382;2023-03-29T08:02:51;3.45;;;1.75;;
28519;SDS011;15732;48.534;20.382;2023-03-29T08:05:19;6.50;;;1.95;;
28519;SDS011;15732;48.534;20.382;2023-03-29T08:07:47;1.88;;;1.05;;
28519;SDS011;15732;48.534;20.382;2023-03-29T08:10:16;3.90;;;1.27;;
28519;SDS011;15732;48.534;20.382;2023-03-29T08:12:45;2.67;;;1.23;;
28519;SDS011;15732;48.534;20.382;2023-03-29T08:15:13;2.80;;;1.38;;
28519;SDS011;15732;48.534;20.382;2023-03-29T08:17:41;10.10;;;1.10;;
28519;SDS011;15732;48.534;20.382;2023-03-29T08:20:09;3.28;;;1.48;;
28519;SDS011;15732;48.534;20.382;2023-03-29T08:22:44;1.30;;;0.80;;
28519;SDS011;15732;48.534;20.382;2023-03-29T08:25:11;1.48;;;0.65;;
28519;SDS011;15732;48.534;20.382;2023-03-29T08:27:39;1.83;;;1.10;;
28519;SDS011;15732;48.534;20.382;2023-03-29T08:30:06;3.30;;;1.20;;
28519;SDS011;15732;48.534;20.382;2023-03-29T08:32:36;4.97;;;1.02;;
28519;SDS011;15732;48.534;20.382;2023-03-29T08:35:04;3.28;;;1.50;;
28519;SDS011;15732;48.534;20.382;2023-03-29T08:37:32;2.38;;;0.82;;
28519;SDS011;15732;48.534;20.382;2023-03-29T08:39:59;4.15;;;1.35;;
28519;SDS011;15732;48.534;20.382;2023-03-29T08:42:47;1.70;;;0.70;;
28519;SDS011;15732;48.534;20.382;2023-03-29T08:48:30;1.13;;;0.68;;
28519;SDS011;15732;48.534;20.382;2023-03-29T08:51:02;2.60;;;1.00;;
28519;SDS011;15732;48.534;20.382;2023-03-29T08:53:34;2.70;;;0.95;;
28519;SDS011;15732;48.534;20.382;2023-03-29T08:56:22;5.05;;;1.05;;
28519;SDS011;15732;48.534;20.382;2023-03-29T08:58:53;1.88;;;0.80;;
28519;SDS011;15732;48.534;20.382;2023-03-29T09:01:22;3.08;;;1.13;;
28519;SDS011;15732;48.534;20.382;2023-03-29T09:06:33;2.75;;;0.98;;
28519;SDS011;15732;48.534;20.382;2023-03-29T09:09:00;1.92;;;0.90;;
28519;SDS011;15732;48.534;20.382;2023-03-29T09:16:54;1.80;;;0.95;;
28519;SDS011;15732;48.534;20.382;2023-03-29T09:20:13;2.35;;;1.10;;
28519;SDS011;15732;48.534;20.382;2023-03-29T09:28:31;3.10;;;1.25;;
28519;SDS011;15732;48.534;20.382;2023-03-29T09:31:25;2.03;;;0.90;;
28519;SDS011;15732;48.534;20.382;2023-03-29T09:34:02;3.35;;;0.85;;
28519;SDS011;15732;48.534;20.382;2023-03-29T09:36:54;2.80;;;0.90;;
28519;SDS011;15732;48.534;20.382;2023-03-29T09:39:29;3.08;;;1.38;;
28519;SDS011;15732;48.534;20.382;2023-03-29T09:42:06;2.85;;;1.17;;
28519;SDS011;15732;48.534;20.382;2023-03-29T09:44:46;1.85;;;0.88;;
28519;SDS011;15732;48.534;20.382;2023-03-29T09:47:37;4.82;;;0.82;;
28519;SDS011;15732;48.534;20.382;2023-03-29T09:50:25;1.80;;;0.85;;
28519;SDS011;15732;48.534;20.382;2023-03-29T09:53:16;3.03;;;1.38;;
28519;SDS011;15732;48.534;20.382;2023-03-29T09:55:47;2.58;;;1.00;;
28519;SDS011;15732;48.534;20.382;2023-03-29T09:58:16;4.03;;;1.45;;
28519;SDS011;15732;48.534;20.382;2023-03-29T10:00:56;1.67;;;1.00;;
28519;SDS011;15732;48.534;20.382;2023-03-29T10:03:29;2.10;;;0.88;;
28519;SDS011;15732;48.534;20.382;2023-03-29T10:06:00;2.60;;;0.77;;
28519;SDS011;15732;48.534;20.382;2023-03-29T10:08:34;2.67;;;1.30;;
28519;SDS011;15732;48.534;20.382;2023-03-29T10:11:26;5.50;;;1.58;;
28519;SDS011;15732;48.534;20.382;2023-03-29T10:14:19;1.90;;;1.08;;
28519;SDS011;15732;48.534;20.382;2023-03-29T10:16:53;1.98;;;0.80;;
28519;SDS011;15732;48.534;20.382;2023-03-29T10:19:32;1.92;;;0.80;;
28519;SDS011;15732;48.534;20.382;2023-03-29T10:22:05;1.83;;;0.82;;
28519;SDS011;15732;48.534;20.382;2023-03-29T10:24:39;5.45;;;2.38;;
28519;SDS011;15732;48.534;20.382;2023-03-29T10:27:32;2.17;;;0.80;;
28519;SDS011;15732;48.534;20.382;2023-03-29T10:30:07;3.22;;;1.70;;
28519;SDS011;15732;48.534;20.382;2023-03-29T10:32:38;1.10;;;0.70;;
28519;SDS011;15732;48.534;20.382;2023-03-29T10:35:13;1.63;;;0.73;;
28519;SDS011;15732;48.534;20.382;2023-03-29T10:37:51;4.20;;;1.60;;
28519;SDS011;15732;48.534;20.382;2023-03-29T10:40:28;3.88;;;1.30;;
28519;SDS011;15732;48.534;20.382;2023-03-29T10:42:58;2.03;;;0.90;;
28519;SDS011;15732;48.534;20.382;2023-03-29T10:45:28;2.78;;;1.13;;
28519;SDS011;15732;48.534;20.382;2023-03-29T10:47:57;5.93;;;1.67;;
28519;SDS011;15732;48.534;20.382;2023-03-29T10:50:31;2.20;;;1.00;;
28519;SDS011;15732;48.534;20.382;2023-03-29T10:53:01;2.47;;;0.90;;
28519;SDS011;15732;48.534;20.382;2023-03-29T10:56:11;3.42;;;1.10;;
28519;SDS011;15732;48.534;20.382;2023-03-29T10:59:07;1.85;;;0.70;;
28519;SDS011;15732;48.534;20.382;2023-03-29T11:04:47;0.70;;;0.45;;
28519;SDS011;15732;48.534;20.382;2023-03-29T11:07:47;1.67;;;0.93;;
28519;SDS011;15732;48.534;20.382;2023-03-29T11:12:57;1.23;;;0.70;;
28519;SDS011;15732;48.534;20.382;2023-03-29T11:15:33;2.42;;;0.88;;
28519;SDS011;15732;48.534;20.382;2023-03-29T11:21:02;1.23;;;0.52;;
28519;SDS011;15732;48.534;20.382;2023-03-29T11:32:06;3.03;;;1.55;;
28519;SDS011;15732;48.534;20.382;2023-03-29T11:37:23;3.70;;;1.70;;
28519;SDS011;15732;48.534;20.382;2023-03-29T11:40:26;1.02;;;0.65;;
28519;SDS011;15732;48.534;20.382;2023-03-29T11:43:07;1.85;;;1.08;;
28519;SDS011;15732;48.534;20.382;2023-03-29T11:45:40;2.15;;;1.00;;
28519;SDS011;15732;48.534;20.382;2023-03-29T11:48:20;1.17;;;0.68;;
28519;SDS011;15732;48.534;20.382;2023-03-29T11:50:55;1.70;;;0.83;;
28519;SDS011;15732;48.534;20.382;2023-03-29T11:53:59;20.90;;;5.22;;
28519;SDS011;15732;48.534;20.382;2023-03-29T11:56:46;2.40;;;0.88;;
28519;SDS011;15732;48.534;20.382;2023-03-29T11:59:33;2.10;;;1.43;;
28519;SDS011;15732;48.534;20.382;2023-03-29T12:08:08;0.40;;;0.40;;
28519;SDS011;15732;48.534;20.382;2023-03-29T12:11:03;2.35;;;0.70;;
28519;SDS011;15732;48.534;20.382;2023-03-29T12:13:46;2.08;;;0.70;;
28519;SDS011;15732;48.534;20.382;2023-03-29T12:19:14;4.03;;;1.15;;
28519;SDS011;15732;48.534;20.382;2023-03-29T12:22:04;1.65;;;0.82;;
28519;SDS011;15732;48.534;20.382;2023-03-29T12:24:33;3.83;;;1.45;;
28519;SDS011;15732;48.534;20.382;2023-03-29T12:27:11;1.33;;;0.68;;
28519;SDS011;15732;48.534;20.382;2023-03-29T12:35:43;2.25;;;0.90;;
28519;SDS011;15732;48.534;20.382;2023-03-29T12:38:30;2.97;;;0.57;;
28519;SDS011;15732;48.534;20.382;2023-03-29T12:41:00;1.92;;;0.63;;
28519;SDS011;15732;48.534;20.382;2023-03-29T12:43:39;1.23;;;0.50;;
28519;SDS011;15732;48.534;20.382;2023-03-29T12:49:25;3.00;;;0.88;;
28519;SDS011;15732;48.534;20.382;2023-03-29T12:51:57;0.47;;;0.35;;
28519;SDS011;15732;48.534;20.382;2023-03-29T12:54:32;3.25;;;1.23;;
28519;SDS011;15732;48.534;20.382;2023-03-29T12:57:19;1.05;;;0.43;;
28519;SDS011;15732;48.534;20.382;2023-03-29T13:00:10;0.70;;;0.50;;
28519;SDS011;15732;48.534;20.382;2023-03-29T13:02:59;2.17;;;0.80;;
28519;SDS011;15732;48.534;20.382;2023-03-29T13:05:32;1.30;;;0.52;;
28519;SDS011;15732;48.534;20.382;2023-03-29T13:08:10;1.30;;;0.70;;
28519;SDS011;15732;48.534;20.382;2023-03-29T13:10:55;1.55;;;0.90;;
28519;SDS011;15732;48.534;20.382;2023-03-29T13:13:27;1.48;;;0.80;;
28519;SDS011;15732;48.534;20.382;2023-03-29T13:40:41;0.70;;;0.55;;
28519;SDS011;15732;48.534;20.382;2023-03-29T13:45:44;1.27;;;0.70;;
28519;SDS011;15732;48.534;20.382;2023-03-29T13:51:20;3.78;;;1.33;;
28519;SDS011;15732;48.534;20.382;2023-03-29T13:54:08;2.03;;;0.60;;
28519;SDS011;15732;48.534;20.382;2023-03-29T13:59:50;2.17;;;0.57;;
28519;SDS011;15732;48.534;20.382;2023-03-29T14:02:44;1.35;;;0.60;;
28519;SDS011;15732;48.534;20.382;2023-03-29T14:05:15;1.75;;;0.65;;
28519;SDS011;15732;48.534;20.382;2023-03-29T14:07:47;2.50;;;0.52;;
28519;SDS011;15732;48.534;20.382;2023-03-29T14:10:30;0.65;;;0.40;;
28519;SDS011;15732;48.534;20.382;2023-03-29T14:13:01;0.43;;;0.40;;
28519;SDS011;15732;48.534;20.382;2023-03-29T14:15:41;1.20;;;0.50;;
28519;SDS011;15732;48.534;20.382;2023-03-29T14:18:17;1.58;;;0.70;;
28519;SDS011;15732;48.534;20.382;2023-03-29T14:20:53;1.80;;;1.08;;
28519;SDS011;15732;48.534;20.382;2023-03-29T14:23:22;0.95;;;0.60;;
28519;SDS011;15732;48.534;20.382;2023-03-29T14:25:50;1.42;;;0.95;;
28519;SDS011;15732;48.534;20.382;2023-03-29T14:28:26;0.93;;;0.55;;
28519;SDS011;15732;48.534;20.382;2023-03-29T14:30:58;5.15;;;1.08;;
28519;SDS011;15732;48.534;20.382;2023-03-29T14:33:28;1.42;;;0.73;;
28519;SDS011;15732;48.534;20.382;2023-03-29T14:35:58;1.67;;;0.90;;
28519;SDS011;15732;48.534;20.382;2023-03-29T14:38:30;2.17;;;1.23;;
28519;SDS011;15732;48.534;20.382;2023-03-29T14:41:02;3.88;;;1.58;;
28519;SDS011;15732;48.534;20.382;2023-03-29T14:43:34;4.30;;;1.65;;
28519;SDS011;15732;48.534;20.382;2023-03-29T14:46:03;1.73;;;0.98;;
28519;SDS011;15732;48.534;20.382;2023-03-29T14:48:36;2.63;;;0.80;;
28519;SDS011;15732;48.534;20.382;2023-03-29T14:51:03;3.17;;;0.90;;
28519;SDS011;15732;48.534;20.382;2023-03-29T14:53:31;3.10;;;1.23;;
28519;SDS011;15732;48.534;20.382;2023-03-29T14:55:59;3.10;;;0.80;;
28519;SDS011;15732;48.534;20.382;2023-03-29T14:58:28;3.70;;;1.73;;
28519;SDS011;15732;48.534;20.382;2023-03-29T15:01:02;4.45;;;1.02;;
28519;SDS011;15732;48.534;20.382;2023-03-29T15:06:37;3.05;;;0.75;;
28519;SDS011;15732;48.534;20.382;2023-03-29T15:09:19;2.53;;;0.93;;
28519;SDS011;15732;48.534;20.382;2023-03-29T15:12:04;1.75;;;0.60;;
28519;SDS011;15732;48.534;20.382;2023-03-29T15:14:32;1.25;;;0.65;;
28519;SDS011;15732;48.534;20.382;2023-03-29T15:17:04;2.92;;;0.68;;
28519;SDS011;15732;48.534;20.382;2023-03-29T15:19:51;1.67;;;0.90;;
28519;SDS011;15732;48.534;20.382;2023-03-29T15:22:22;0.95;;;0.50;;
28519;SDS011;15732;48.534;20.382;2023-03-29T15:24:56;2.83;;;1.15;;
28519;SDS011;15732;48.534;20.382;2023-03-29T15:27:23;0.52;;;0.40;;
28519;SDS011;15732;48.534;20.382;2023-03-29T15:29:57;4.00;;;1.20;;
28519;SDS011;15732;48.534;20.382;2023-03-29T15:32:32;1.20;;;0.73;;
28519;SDS011;15732;48.534;20.382;2023-03-29T15:35:01;2.65;;;0.98;;
28519;SDS011;15732;48.534;20.382;2023-03-29T15:37:30;1.73;;;0.70;;
28519;SDS011;15732;48.534;20.382;2023-03-29T15:39:58;1.65;;;0.60;;
28519;SDS011;15732;48.534;20.382;2023-03-29T15:42:25;3.33;;;1.17;;
28519;SDS011;15732;48.534;20.382;2023-03-29T15:44:53;1.85;;;1.10;;
28519;SDS011;15732;48.534;20.382;2023-03-29T15:47:21;1.95;;;1.08;;
28519;SDS011;15732;48.534;20.382;2023-03-29T15:49:49;1.55;;;0.90;;
28519;SDS011;15732;48.534;20.382;2023-03-29T15:52:16;2.63;;;0.82;;
28519;SDS011;15732;48.534;20.382;2023-03-29T15:54:43;3.50;;;0.80;;
28519;SDS011;15732;48.534;20.382;2023-03-29T15:57:11;2.08;;;1.27;;
28519;SDS011;15732;48.534;20.382;2023-03-29T15:59:43;3.22;;;1.58;;
28519;SDS011;15732;48.534;20.382;2023-03-29T16:02:12;4.22;;;1.27;;
28519;SDS011;15732;48.534;20.382;2023-03-29T16:04:43;3.28;;;1.67;;
28519;SDS011;15732;48.534;20.382;2023-03-29T16:07:15;3.65;;;1.70;;
28519;SDS011;15732;48.534;20.382;2023-03-29T16:09:43;2.30;;;1.23;;
28519;SDS011;15732;48.534;20.382;2023-03-29T16:12:11;2.58;;;1.08;;
28519;SDS011;15732;48.534;20.382;2023-03-29T16:14:43;2.47;;;1.20;;
28519;SDS011;15732;48.534;20.382;2023-03-29T16:17:11;5.05;;;1.48;;
28519;SDS011;15732;48.534;20.382;2023-03-29T16:19:39;2.25;;;0.98;;
28519;SDS011;15732;48.534;20.382;2023-03-29T16:22:06;1.80;;;1.00;;
28519;SDS011;15732;48.534;20.382;2023-03-29T16:24:33;1.80;;;1.05;;
28519;SDS011;15732;48.534;20.382;2023-03-29T16:27:00;1.60;;;0.93;;
28519;SDS011;15732;48.534;20.382;2023-03-29T16:29:31;1.48;;;0.73;;
28519;SDS011;15732;48.534;20.382;2023-03-29T16:31:59;1.33;;;0.65;;
28519;SDS011;15732;48.534;20.382;2023-03-29T16:34:26;1.50;;;0.90;;
28519;SDS011;15732;48.534;20.382;2023-03-29T16:36:54;1.88;;;0.98;;
28519;SDS011;15732;48.534;20.382;2023-03-29T16:39:25;3.03;;;1.33;;
28519;SDS011;15732;48.534;20.382;2023-03-29T16:41:53;1.27;;;0.88;;
28519;SDS011;15732;48.534;20.382;2023-03-29T16:44:20;2.22;;;0.95;;
28519;SDS011;15732;48.534;20.382;2023-03-29T16:46:53;1.75;;;0.95;;
28519;SDS011;15732;48.534;20.382;2023-03-29T16:49:23;2.22;;;0.95;;
28519;SDS011;15732;48.534;20.382;2023-03-29T16:51:50;3.55;;;1.58;;
28519;SDS011;15732;48.534;20.382;2023-03-29T16:54:17;9.23;;;1.33;;
28519;SDS011;15732;48.534;20.382;2023-03-29T16:56:45;5.63;;;1.95;;
28519;SDS011;15732;48.534;20.382;2023-03-29T16:59:12;7.50;;;2.80;;
28519;SDS011;15732;48.534;20.382;2023-03-29T17:01:44;9.90;;;3.00;;